Time,TemperatureF,DewpointF,PressureIn,WindDirection,WindDirectionDegrees,WindSpeedMPH,WindSpeedGustMPH,Humidity,HourlyPrecipIn,Conditions,Clouds,dailyrainin,SoftwareType,DateUTC
2013-02-23 00:00:00,12.0,10.0,-100.00,WNW,288,4.0,16.0,91,-99.99,,,-99.99,,2013-02-23 07:00:00,
2013-02-23 00:32:00,12.0,10.0,-100.00,WNW,288,4.0,16.0,91,-99.99,,,-99.99,,2013-02-23 07:32:00,
2013-02-23 00:42:00,12.0,10.0,-100.00,WNW,288,4.0,16.0,91,-99.99,,,-99.99,,2013-02-23 07:42:00,
2013-02-23 00:52:00,12.0,10.0,-100.00,WNW,288,4.0,16.0,91,-99.99,,,-99.99,,2013-02-23 07:52:00,
2013-02-23 02:00:00,14.0,11.0,-100.00,NNE,15,4.0,12.0,89,-99.99,,,-99.99,,2013-02-23 09:00:00,
2013-02-23 02:32:00,14.0,11.0,-100.00,NNE,15,4.0,12.0,89,-99.99,,,-99.99,,2013-02-23 09:32:00,
2013-02-23 02:42:00,14.0,11.0,-100.00,NNE,15,4.0,12.0,89,-99.99,,,-99.99,,2013-02-23 09:42:00,
2013-02-23 02:52:00,14.0,11.0,-100.00,NNE,15,4.0,12.0,89,-99.99,,,-99.99,,2013-02-23 09:52:00,
2013-02-23 04:00:00,17.0,13.0,-100.00,West,280,4.0,15.0,85,-99.99,,,-99.99,,2013-02-23 11:00:00,
2013-02-23 04:32:00,17.0,13.0,-100.00,West,280,4.0,15.0,85,-99.99,,,-99.99,,2013-02-23 11:32:00,
2013-02-23 04:42:00,17.0,13.0,-100.00,West,280,4.0,15.0,85,-99.99,,,-99.99,,2013-02-23 11:42:00,
2013-02-23 04:52:00,17.0,13.0,-100.00,West,280,4.0,15.0,85,-99.99,,,-99.99,,2013-02-23 11:52:00,
2013-02-23 06:00:00,16.0,14.0,-100.00,WSW,245,3.0,13.0,92,-99.99,,,-99.99,,2013-02-23 13:00:00,
2013-02-23 06:32:00,16.0,14.0,-100.00,WSW,245,3.0,13.0,92,-99.99,,,-99.99,,2013-02-23 13:32:00,
2013-02-23 06:42:00,16.0,14.0,-100.00,WSW,245,3.0,13.0,92,-99.99,,,-99.99,,2013-02-23 13:42:00,
2013-02-23 06:52:00,16.0,14.0,-100.00,WSW,245,3.0,13.0,92,-99.99,,,-99.99,,2013-02-23 13:52:00,
2013-02-23 08:00:00,18.0,17.0,-100.00,WSW,237,5.0,13.0,92,-99.99,,,-99.99,,2013-02-23 15:00:00,
2013-02-23 08:32:00,18.0,17.0,-100.00,WSW,237,5.0,13.0,92,-99.99,,,-99.99,,2013-02-23 15:32:00,
2013-02-23 08:42:00,18.0,17.0,-100.00,WSW,237,5.0,13.0,92,-99.99,,,-99.99,,2013-02-23 15:42:00,
2013-02-23 08:52:00,18.0,17.0,-100.00,WSW,237,5.0,13.0,92,-99.99,,,-99.99,,2013-02-23 15:52:00,
2013-02-23 10:00:00,20.0,18.0,-100.00,South,180,7.0,22.0,91,-99.99,,,-99.99,,2013-02-23 17:00:00,
2013-02-23 10:32:00,20.0,18.0,-100.00,South,180,7.0,22.0,91,-99.99,,,-99.99,,2013-02-23 17:32:00,
2013-02-23 10:42:00,20.0,18.0,-100.00,South,180,7.0,22.0,91,-99.99,,,-99.99,,2013-02-23 17:42:00,
2013-02-23 10:52:00,20.0,18.0,-100.00,South,180,7.0,22.0,91,-99.99,,,-99.99,,2013-02-23 17:52:00,
2013-02-23 12:00:00,13.0,12.0,-100.00,NW,314,4.0,19.0,94,-99.99,,,-99.99,,2013-02-23 19:00:00,
2013-02-23 12:32:00,13.0,12.0,-100.00,NW,314,4.0,19.0,94,-99.99,,,-99.99,,2013-02-23 19:32:00,
2013-02-23 12:42:00,13.0,12.0,-100.00,NW,314,4.0,19.0,94,-99.99,,,-99.99,,2013-02-23 19:42:00,
2013-02-23 12:52:00,13.0,12.0,-100.00,NW,314,4.0,19.0,94,-99.99,,,-99.99,,2013-02-23 19:52:00,
2013-02-23 14:00:00,9.0,7.0,-100.00,WNW,288,10.0,31.0,92,-99.99,,,-99.99,,2013-02-23 21:00:00,
2013-02-23 14:32:00,9.0,7.0,-100.00,WNW,288,10.0,31.0,92,-99.99,,,-99.99,,2013-02-23 21:32:00,
2013-02-23 14:42:00,9.0,7.0,-100.00,WNW,288,10.0,31.0,92,-99.99,,,-99.99,,2013-02-23 21:42:00,
2013-02-23 14:52:00,9.0,7.0,-100.00,WNW,288,10.0,31.0,92,-99.99,,,-99.99,,2013-02-23 21:52:00,
2013-02-23 16:00:00,6.0,4.0,-100.00,WNW,287,15.0,29.0,92,-99.99,,,-99.99,,2013-02-23 23:00:00,
2013-02-23 16:32:00,6.0,4.0,-100.00,WNW,287,15.0,29.0,92,-99.99,,,-99.99,,2013-02-23 23:32:00,
2013-02-23 16:42:00,6.0,4.0,-100.00,WNW,287,15.0,29.0,92,-99.99,,,-99.99,,2013-02-23 23:42:00,
2013-02-23 16:52:00,6.0,4.0,-100.00,WNW,287,15.0,29.0,92,-99.99,,,-99.99,,2013-02-23 23:52:00,
2013-02-23 18:00:00,6.0,4.0,-100.00,NW,307,6.0,19.0,92,-99.99,,,-99.99,,2013-02-24 01:00:00,
2013-02-23 18:32:00,6.0,4.0,-100.00,NW,307,6.0,19.0,92,-99.99,,,-99.99,,2013-02-24 01:32:00,
2013-02-23 18:42:00,6.0,4.0,-100.00,NW,307,6.0,19.0,92,-99.99,,,-99.99,,2013-02-24 01:42:00,
2013-02-23 18:52:00,6.0,4.0,-100.00,NW,307,6.0,19.0,92,-99.99,,,-99.99,,2013-02-24 01:52:00,
2013-02-23 20:00:00,5.0,4.0,-100.00,NW,304,8.0,16.0,92,-99.99,,,-99.99,,2013-02-24 03:00:00,
2013-02-23 20:32:00,5.0,4.0,-100.00,NW,304,8.0,16.0,92,-99.99,,,-99.99,,2013-02-24 03:32:00,
2013-02-23 20:42:00,5.0,4.0,-100.00,NW,304,8.0,16.0,92,-99.99,,,-99.99,,2013-02-24 03:42:00,
2013-02-23 20:52:00,5.0,4.0,-100.00,NW,304,8.0,16.0,92,-99.99,,,-99.99,,2013-02-24 03:52:00,
2013-02-23 22:00:00,6.0,4.0,-100.00,NW,307,7.0,19.0,91,-99.99,,,-99.99,,2013-02-24 05:00:00,
2013-02-23 22:32:00,6.0,4.0,-100.00,NW,307,7.0,19.0,91,-99.99,,,-99.99,,2013-02-24 05:32:00,
2013-02-23 22:42:00,6.0,4.0,-100.00,NW,307,7.0,19.0,91,-99.99,,,-99.99,,2013-02-24 05:42:00,
2013-02-23 22:52:00,6.0,4.0,-100.00,NW,307,7.0,19.0,91,-99.99,,,-99.99,,2013-02-24 05:52:00,